createdAt,value
2018-03-20T00:01:38.333Z,23.15
2018-03-20T00:04:06.411Z,25.40
2018-03-20T00:06:34.500Z,25.20
2018-03-20T00:09:02.552Z,24.85
2018-03-20T00:11:30.615Z,26.17
2018-03-20T00:13:58.647Z,24.35
2018-03-20T00:16:26.695Z,25.83
2018-03-20T00:18:54.736Z,26.75
2018-03-20T00:21:22.783Z,27.20
2018-03-20T00:23:50.885Z,26.33
2018-03-20T00:26:19.013Z,27.50
2018-03-20T00:28:47.043Z,28.40
2018-03-20T00:31:15.086Z,27.42
2018-03-20T00:33:43.924Z,28.12
2018-03-20T00:36:11.961Z,27.92
2018-03-20T00:38:40.031Z,27.98
2018-03-20T00:41:08.092Z,29.90
2018-03-20T00:43:36.147Z,30.40
2018-03-20T00:46:05.681Z,31.48
2018-03-20T00:48:33.718Z,30.50
2018-03-20T00:51:01.760Z,30.30
2018-03-20T00:53:29.834Z,30.60
2018-03-20T00:55:58.001Z,31.52
2018-03-20T00:58:26.050Z,31.05
2018-03-20T01:00:54.104Z,31.45
2018-03-20T01:03:23.242Z,31.65
2018-03-20T01:05:51.326Z,33.42
2018-03-20T01:08:19.392Z,32.53
2018-03-20T01:10:47.460Z,33.55
2018-03-20T01:13:15.704Z,32.72
2018-03-20T01:15:43.750Z,33.92
2018-03-20T01:18:12.606Z,34.72
2018-03-20T01:20:40.666Z,33.03
2018-03-20T01:23:27.053Z,34.17
2018-03-20T01:25:57.783Z,34.53
2018-03-20T01:28:28.246Z,35.20
2018-03-20T01:30:57.211Z,36.10
2018-03-20T01:33:25.264Z,34.55
2018-03-20T01:35:53.313Z,35.50
2018-03-20T01:38:22.098Z,34.17
2018-03-20T01:40:50.173Z,36.67
2018-03-20T01:43:18.226Z,37.50
2018-03-20T01:45:46.304Z,37.22
2018-03-20T01:48:14.401Z,36.97
2018-03-20T01:50:42.465Z,35.40
2018-03-20T01:53:11.313Z,37.33
2018-03-20T01:55:39.383Z,38.35
2018-03-20T01:58:07.425Z,38.72
2018-03-20T02:00:35.509Z,37.05
2018-03-20T02:03:03.550Z,36.38
2018-03-20T02:05:31.639Z,37.73
2018-03-20T02:07:59.709Z,36.70
2018-03-20T02:10:28.055Z,37.95
2018-03-20T02:12:56.123Z,37.75
2018-03-20T02:15:24.173Z,37.92
2018-03-20T02:17:52.215Z,38.80
2018-03-20T02:20:20.292Z,36.88
2018-03-20T02:22:48.341Z,35.53
2018-03-20T02:25:16.437Z,36.25
2018-03-20T02:27:44.509Z,35.80
2018-03-20T02:30:12.558Z,37.72
2018-03-20T02:32:40.601Z,38.00
2018-03-20T02:35:08.651Z,38.67
2018-03-20T02:37:36.741Z,37.35
2018-03-20T02:40:04.783Z,38.17
2018-03-20T02:42:33.585Z,39.65
2018-03-20T02:45:01.633Z,39.33
2018-03-20T02:47:29.722Z,37.25
2018-03-20T02:49:57.807Z,41.90
2018-03-20T02:52:25.966Z,39.38
2018-03-20T02:54:54.009Z,39.05
2018-03-20T02:57:22.049Z,38.92
2018-03-20T02:59:50.084Z,38.13
2018-03-20T03:02:18.173Z,39.72
2018-03-20T03:04:46.225Z,40.78
2018-03-20T03:07:14.258Z,41.17
2018-03-20T03:09:42.338Z,39.83
2018-03-20T03:12:10.564Z,39.22
2018-03-20T03:14:38.628Z,38.47
2018-03-20T03:17:06.664Z,38.65
2018-03-20T03:19:34.720Z,42.03
2018-03-20T03:22:03.524Z,40.88
2018-03-20T03:24:31.572Z,43.08
2018-03-20T03:26:59.626Z,39.95
2018-03-20T03:29:27.684Z,39.50
2018-03-20T03:31:55.714Z,39.53
2018-03-20T03:34:23.754Z,41.43
2018-03-20T03:36:51.784Z,41.93
2018-03-20T03:39:19.944Z,40.73
2018-03-20T03:41:47.986Z,39.60
2018-03-20T03:44:16.772Z,40.87
2018-03-20T03:46:44.837Z,39.40
2018-03-20T03:49:12.904Z,40.58
2018-03-20T03:51:40.986Z,40.15
2018-03-20T03:54:09.028Z,40.70
2018-03-20T03:56:37.073Z,41.55
2018-03-20T03:59:05.111Z,42.30
2018-03-20T04:01:33.192Z,40.97
2018-03-20T04:04:01.269Z,42.60
2018-03-20T04:06:29.336Z,41.73
2018-03-20T04:08:57.386Z,42.25
2018-03-20T04:11:26.199Z,40.30
2018-03-20T04:13:54.247Z,44.90
2018-03-20T04:16:22.335Z,46.50
2018-03-20T04:18:50.377Z,40.78
2018-03-20T04:21:18.429Z,41.70
2018-03-20T04:23:46.487Z,39.92
2018-03-20T04:26:14.553Z,39.63
2018-03-20T04:28:42.614Z,11.05
2018-03-20T04:31:10.671Z,26.48
2018-03-20T04:33:40.380Z,23.90
2018-03-20T04:36:09.994Z,22.15
2018-03-20T04:38:37.937Z,21.65
2018-03-20T04:41:05.995Z,21.42
2018-03-20T04:43:34.041Z,19.73
2018-03-20T04:46:02.070Z,19.37
2018-03-20T04:48:30.133Z,19.45
2018-03-20T04:50:58.186Z,19.00
2018-03-20T04:53:26.279Z,12.35
2018-03-20T04:55:54.355Z,16.83
2018-03-20T04:58:22.404Z,16.98
2018-03-20T05:00:50.456Z,15.57
2018-03-20T05:03:18.530Z,16.17
2018-03-20T05:05:46.610Z,17.65
2018-03-20T05:08:14.650Z,17.50
2018-03-20T05:10:42.689Z,18.15
2018-03-20T05:13:11.498Z,17.70
2018-03-20T05:15:39.557Z,18.42
2018-03-20T05:18:07.601Z,8.75
2018-03-20T05:20:51.416Z,8.80
2018-03-20T05:23:24.852Z,11.98
2018-03-20T05:25:52.900Z,13.05
2018-03-20T05:28:20.924Z,11.65
2018-03-20T05:30:49.022Z,11.05
2018-03-20T05:33:17.056Z,11.38
2018-03-20T05:35:45.142Z,12.93
2018-03-20T05:38:13.184Z,11.63
2018-03-20T05:40:41.214Z,11.40
2018-03-20T05:43:09.242Z,10.88
2018-03-20T05:45:37.303Z,11.63
2018-03-20T05:51:17.402Z,9.68
2018-03-20T05:53:45.428Z,9.98
2018-03-20T05:56:13.463Z,10.23
2018-03-20T05:58:41.584Z,8.68
2018-03-20T06:01:09.704Z,9.82
2018-03-20T06:03:37.748Z,8.80
2018-03-20T06:06:05.789Z,10.68
2018-03-20T06:08:33.838Z,9.63
2018-03-20T06:11:01.887Z,9.48
2018-03-20T06:13:29.949Z,9.00
2018-03-20T06:15:57.985Z,9.27
2018-03-20T06:18:26.029Z,15.77
2018-03-20T06:20:54.055Z,9.05
2018-03-20T06:23:22.149Z,9.77
2018-03-20T06:25:50.203Z,12.13
2018-03-20T06:28:18.287Z,9.65
2018-03-20T06:30:47.061Z,8.32
2018-03-20T06:33:15.096Z,11.63
2018-03-20T06:35:43.159Z,10.40
2018-03-20T06:38:11.176Z,9.82
2018-03-20T06:40:39.240Z,8.38
2018-03-20T06:43:08.048Z,8.52
2018-03-20T06:45:36.123Z,10.18
2018-03-20T06:48:04.221Z,8.65
2018-03-20T06:50:33.057Z,13.43
2018-03-20T06:53:01.087Z,12.63
2018-03-20T06:55:29.141Z,12.35
2018-03-20T06:57:57.179Z,9.48
2018-03-20T07:00:26.062Z,17.27
2018-03-20T07:02:54.099Z,18.20
2018-03-20T07:05:22.151Z,10.63
2018-03-20T07:07:50.194Z,12.07
2018-03-20T07:10:18.249Z,9.23
2018-03-20T07:12:46.307Z,12.90
2018-03-20T07:15:14.402Z,10.73
2018-03-20T07:17:42.446Z,9.93
2018-03-20T07:20:10.499Z,10.75
2018-03-20T07:22:38.555Z,10.23
2018-03-20T07:25:06.662Z,7.40
2018-03-20T07:27:34.718Z,13.50
2018-03-20T07:30:02.763Z,11.93
2018-03-20T07:32:30.824Z,10.18
2018-03-20T07:34:58.897Z,7.35
2018-03-20T07:37:26.960Z,9.13
2018-03-20T07:39:55.876Z,10.32
2018-03-20T07:42:24.669Z,11.38
2018-03-20T07:44:52.716Z,9.23
2018-03-20T07:47:20.784Z,8.07
2018-03-20T07:49:48.840Z,7.82
2018-03-20T07:52:16.891Z,8.48
2018-03-20T07:54:44.953Z,8.20
2018-03-20T07:57:13.046Z,7.97
2018-03-20T07:59:42.615Z,8.93
2018-03-20T08:02:10.752Z,6.85
2018-03-20T08:04:39.138Z,9.45
2018-03-20T08:07:07.183Z,10.50
2018-03-20T08:09:35.264Z,10.93
2018-03-20T08:12:03.342Z,10.07
2018-03-20T08:14:31.405Z,14.43
2018-03-20T08:16:59.439Z,20.45
2018-03-20T08:19:27.506Z,21.27
2018-03-20T08:21:55.960Z,15.20
2018-03-20T08:24:24.123Z,14.95
2018-03-20T08:26:52.185Z,20.67
2018-03-20T08:29:20.246Z,11.40
2018-03-20T08:31:48.339Z,10.32
2018-03-20T08:34:16.425Z,10.10
2018-03-20T08:36:44.547Z,10.40
2018-03-20T08:39:13.001Z,10.10
2018-03-20T08:41:41.063Z,8.13
2018-03-20T08:44:09.109Z,7.93
2018-03-20T08:46:37.175Z,10.77
2018-03-20T08:49:05.237Z,11.43
2018-03-20T08:51:33.325Z,14.68
2018-03-20T08:54:01.385Z,9.98
2018-03-20T08:56:30.225Z,12.73
2018-03-20T08:58:58.296Z,11.15
2018-03-20T09:01:26.370Z,10.25
2018-03-20T09:03:54.431Z,10.13
2018-03-20T09:06:22.536Z,10.82
2018-03-20T09:08:50.571Z,11.45
2018-03-20T09:11:19.397Z,12.07
2018-03-20T09:13:47.463Z,11.70
2018-03-20T09:16:15.515Z,10.10
2018-03-20T09:18:43.570Z,10.02
2018-03-20T09:21:11.619Z,10.35
2018-03-20T09:23:39.699Z,10.95
2018-03-20T09:26:07.770Z,7.25
2018-03-20T09:28:35.848Z,10.30
2018-03-20T09:31:03.944Z,12.32
2018-03-20T09:33:31.982Z,10.38
2018-03-20T09:36:00.299Z,11.00
2018-03-20T09:38:28.380Z,13.48
2018-03-20T09:40:56.421Z,12.37
2018-03-20T09:43:24.518Z,12.80
2018-03-20T09:45:52.783Z,8.45
2018-03-20T09:48:21.615Z,12.45
2018-03-20T09:50:50.458Z,8.68
2018-03-20T09:53:18.613Z,9.15
2018-03-20T09:55:46.695Z,10.20
2018-03-20T09:58:14.768Z,7.60
2018-03-20T10:00:42.838Z,10.18
2018-03-20T10:03:11.686Z,8.48
2018-03-20T10:05:39.772Z,11.40
2018-03-20T10:08:09.325Z,7.65
2018-03-20T10:10:37.397Z,10.30
2018-03-20T10:13:05.477Z,7.70
2018-03-20T10:15:33.521Z,7.30
2018-03-20T10:18:02.212Z,7.68
2018-03-20T10:20:30.280Z,12.98
2018-03-20T10:22:58.345Z,7.32
2018-03-20T10:25:26.421Z,8.02
2018-03-20T10:27:54.470Z,8.38
2018-03-20T10:30:22.525Z,13.38
2018-03-20T10:32:50.654Z,10.52
2018-03-20T10:35:18.755Z,8.30
2018-03-20T10:37:46.821Z,6.93
2018-03-20T10:40:14.886Z,8.23
2018-03-20T10:42:42.935Z,8.77
2018-03-20T10:45:10.987Z,6.60
2018-03-20T10:47:39.837Z,10.02
2018-03-20T10:50:07.897Z,13.38
2018-03-20T10:52:35.976Z,8.63
2018-03-20T10:55:04.131Z,8.40
2018-03-20T10:57:32.169Z,10.23
2018-03-20T11:00:00.219Z,9.27
2018-03-20T11:02:32.116Z,10.35
2018-03-20T11:05:00.181Z,9.48
2018-03-20T11:07:28.243Z,9.73
2018-03-20T11:09:56.294Z,7.18
2018-03-20T11:12:24.355Z,8.07
2018-03-20T11:14:52.427Z,8.88
2018-03-20T11:17:20.482Z,8.05
2018-03-20T11:19:48.544Z,21.75
2018-03-20T11:22:16.582Z,19.75
2018-03-20T11:24:44.671Z,9.98
2018-03-20T11:27:12.692Z,14.55
2018-03-20T11:29:40.770Z,11.85
2018-03-20T11:32:10.353Z,13.02
2018-03-20T11:34:38.516Z,11.55
2018-03-20T11:37:06.570Z,10.75
2018-03-20T11:39:34.710Z,8.98
2018-03-20T11:42:02.736Z,7.57
2018-03-20T11:44:30.778Z,7.60
2018-03-20T11:46:58.844Z,19.65
2018-03-20T11:49:26.911Z,9.25
2018-03-20T11:51:55.712Z,8.45
2018-03-20T11:54:23.783Z,9.32
2018-03-20T11:56:51.855Z,9.23
2018-03-20T11:59:19.917Z,9.77
2018-03-20T12:01:48.073Z,6.47
2018-03-20T12:04:16.136Z,9.73
2018-03-20T12:06:44.194Z,8.02
2018-03-20T12:09:12.456Z,8.70
2018-03-20T12:11:40.784Z,8.30
2018-03-20T12:14:08.930Z,9.15
2018-03-20T12:16:36.971Z,8.27
2018-03-20T12:19:05.041Z,10.43
2018-03-20T12:21:33.112Z,10.57
2018-03-20T12:24:01.145Z,8.55
2018-03-20T12:26:29.183Z,7.32
2018-03-20T12:28:57.229Z,8.52
2018-03-20T12:31:25.334Z,7.85
2018-03-20T12:33:53.352Z,8.50
2018-03-20T12:36:21.373Z,8.85
2018-03-20T12:38:49.428Z,8.55
2018-03-20T12:41:17.487Z,9.35
2018-03-20T12:43:45.521Z,9.20
2018-03-20T12:46:13.577Z,10.30
2018-03-20T12:48:41.608Z,8.23
2018-03-20T12:51:09.661Z,8.05
2018-03-20T12:53:37.723Z,8.55
2018-03-20T12:56:05.766Z,8.75
2018-03-20T12:58:33.933Z,11.40
2018-03-20T13:01:02.782Z,8.18
2018-03-20T13:03:30.845Z,9.10
2018-03-20T13:05:58.920Z,9.82
2018-03-20T13:08:26.973Z,8.00
2018-03-20T13:10:55.026Z,10.48
2018-03-20T13:13:23.064Z,7.95
2018-03-20T13:15:51.120Z,9.52
2018-03-20T13:18:19.192Z,7.78
2018-03-20T13:20:47.281Z,8.63
2018-03-20T13:23:15.379Z,6.35
2018-03-20T13:25:43.343Z,5.97
2018-03-20T13:28:11.402Z,7.15
2018-03-20T13:30:39.466Z,7.37
2018-03-20T13:33:07.518Z,4.90
2018-03-20T13:35:35.546Z,6.82
2018-03-20T13:38:04.355Z,7.00
2018-03-20T13:40:32.394Z,7.97
2018-03-20T13:43:00.447Z,8.98
2018-03-20T13:45:28.519Z,7.87
2018-03-20T13:47:56.566Z,7.93
2018-03-20T13:50:24.632Z,6.47
2018-03-20T13:52:52.655Z,7.47
2018-03-20T13:55:22.211Z,7.25
2018-03-20T13:57:50.274Z,7.53
2018-03-20T14:00:18.329Z,5.78
2018-03-20T14:02:46.375Z,8.70
2018-03-20T14:05:14.441Z,6.65
2018-03-20T14:07:42.783Z,8.90
2018-03-20T14:10:10.848Z,8.13
2018-03-20T14:12:38.907Z,7.80
2018-03-20T14:15:07.151Z,10.00
2018-03-20T14:17:35.185Z,8.27
2018-03-20T14:20:03.203Z,10.38
2018-03-20T14:22:31.267Z,10.73
2018-03-20T14:24:59.313Z,12.05
2018-03-20T14:27:27.373Z,9.40
2018-03-20T14:29:55.419Z,6.50
2018-03-20T14:32:23.500Z,15.43
2018-03-20T14:34:51.581Z,7.18
2018-03-20T14:37:19.649Z,6.95
2018-03-20T14:39:47.726Z,10.07
2018-03-20T14:42:15.776Z,7.12
2018-03-20T14:44:43.834Z,7.93
2018-03-20T14:47:11.906Z,7.62
2018-03-20T14:49:39.989Z,6.72
2018-03-20T14:52:08.040Z,7.20
2018-03-20T14:54:36.083Z,9.20
2018-03-20T14:57:04.146Z,8.20
2018-03-20T14:59:32.248Z,11.80
2018-03-20T15:02:00.308Z,8.50
2018-03-20T15:04:28.342Z,8.15
2018-03-20T15:06:56.388Z,7.90
2018-03-20T15:09:24.471Z,6.62
2018-03-20T15:11:52.537Z,9.27
2018-03-20T15:14:21.354Z,7.32
2018-03-20T15:16:49.396Z,6.47
2018-03-20T15:19:17.464Z,8.32
2018-03-20T15:21:46.360Z,7.95
2018-03-20T15:24:14.417Z,6.72
2018-03-20T15:26:42.490Z,8.73
2018-03-20T15:29:10.560Z,8.55
2018-03-20T15:31:40.129Z,6.07
2018-03-20T15:34:08.391Z,6.68
2018-03-20T15:36:36.478Z,10.57
2018-03-20T15:39:04.545Z,7.25
2018-03-20T15:41:32.589Z,8.43
2018-03-20T15:44:00.658Z,11.45
2018-03-20T15:46:28.702Z,10.10
2018-03-20T15:48:56.805Z,7.00
2018-03-20T15:51:24.892Z,6.90
2018-03-20T15:53:52.920Z,7.30
2018-03-20T15:56:22.477Z,9.40
2018-03-20T15:58:50.533Z,11.12
2018-03-20T16:01:18.621Z,7.95
2018-03-20T16:03:46.682Z,6.78
2018-03-20T16:06:14.733Z,9.80
2018-03-20T16:08:42.806Z,7.30
2018-03-20T16:11:10.853Z,8.73
2018-03-20T16:13:38.920Z,8.30
2018-03-20T16:16:07.007Z,6.70
2018-03-20T16:18:35.045Z,10.55
2018-03-20T16:21:03.121Z,6.35
2018-03-20T16:23:31.183Z,7.70
2018-03-20T16:25:59.277Z,6.75
2018-03-20T16:28:27.351Z,8.55
2018-03-20T16:30:55.503Z,7.97
2018-03-20T16:33:23.577Z,8.27
2018-03-20T16:35:51.652Z,9.20
2018-03-20T16:38:19.697Z,7.60
2018-03-20T16:40:47.748Z,8.40
2018-03-20T16:43:16.575Z,8.02
2018-03-20T16:45:44.649Z,7.70
2018-03-20T16:48:12.698Z,9.73
2018-03-20T16:50:40.756Z,7.95
2018-03-20T16:53:09.560Z,6.50
2018-03-20T16:55:37.647Z,7.60
2018-03-20T16:58:05.719Z,7.47
2018-03-20T17:00:33.780Z,6.85
2018-03-20T17:03:01.875Z,7.43
2018-03-20T17:05:30.204Z,8.20
2018-03-20T17:07:58.258Z,10.05
2018-03-20T17:10:26.331Z,9.05
2018-03-20T17:12:54.387Z,9.02
2018-03-20T17:15:22.473Z,6.68
2018-03-20T17:17:50.541Z,8.15
2018-03-20T17:20:18.596Z,9.75
2018-03-20T17:22:46.687Z,7.32
2018-03-20T17:25:14.794Z,9.10
2018-03-20T17:27:42.852Z,6.93
2018-03-20T17:30:11.715Z,7.43
2018-03-20T17:32:39.884Z,8.32
2018-03-20T17:35:07.945Z,9.00
2018-03-20T17:37:35.982Z,7.53
2018-03-20T17:40:04.818Z,8.60
2018-03-20T17:42:32.870Z,9.45
2018-03-20T17:45:01.004Z,6.82
2018-03-20T17:47:29.093Z,9.02
2018-03-20T17:49:57.917Z,7.50
2018-03-20T17:52:25.955Z,7.95
2018-03-20T17:54:54.000Z,8.55
2018-03-20T17:57:22.055Z,8.13
2018-03-20T17:59:50.113Z,9.02
2018-03-20T18:02:18.492Z,6.97
2018-03-20T18:04:46.527Z,8.85
2018-03-20T18:07:14.597Z,9.38
2018-03-20T18:09:42.670Z,7.18
2018-03-20T18:12:10.724Z,10.95
2018-03-20T18:14:38.820Z,6.78
2018-03-20T18:17:06.915Z,9.10
2018-03-20T18:19:34.987Z,7.95
2018-03-20T18:22:03.413Z,8.95
2018-03-20T18:24:31.494Z,10.45
2018-03-20T18:26:59.541Z,9.35
2018-03-20T18:29:27.585Z,9.10
2018-03-20T18:31:55.683Z,13.23
2018-03-20T18:34:23.726Z,12.65
2018-03-20T18:36:51.782Z,14.52
2018-03-20T18:39:19.834Z,12.20
2018-03-20T18:41:47.897Z,18.40
2018-03-20T18:44:16.722Z,12.07
2018-03-20T18:46:44.807Z,17.67
2018-03-20T18:49:12.868Z,11.52
2018-03-20T18:51:40.950Z,12.50
2018-03-20T18:54:08.998Z,9.98
2018-03-20T18:56:37.050Z,11.23
2018-03-20T18:59:05.066Z,9.30
2018-03-20T19:01:33.115Z,11.25
2018-03-20T19:04:01.304Z,11.00
2018-03-20T19:06:29.319Z,9.27
2018-03-20T19:08:57.380Z,8.82
2018-03-20T19:11:25.420Z,12.43
2018-03-20T19:13:53.481Z,10.65
2018-03-20T19:16:21.564Z,8.23
2018-03-20T19:18:49.605Z,10.40
2018-03-20T19:21:18.422Z,9.00
2018-03-20T19:23:46.501Z,8.45
2018-03-20T19:26:14.596Z,11.48
2018-03-20T19:28:42.660Z,9.30
2018-03-20T19:31:10.746Z,8.90
2018-03-20T19:33:39.021Z,9.55
2018-03-20T19:36:07.072Z,8.93
2018-03-20T19:38:35.312Z,11.20
2018-03-20T19:41:03.432Z,9.25
2018-03-20T19:43:31.461Z,8.60
2018-03-20T19:45:59.503Z,9.57
2018-03-20T19:48:27.605Z,10.77
2018-03-20T19:50:55.678Z,8.63
2018-03-20T19:53:23.734Z,9.20
2018-03-20T19:55:51.804Z,9.38
2018-03-20T19:58:19.873Z,9.68
2018-03-20T20:00:47.946Z,11.60
2018-03-20T20:03:16.008Z,8.93
2018-03-20T20:05:44.041Z,9.75
2018-03-20T20:08:12.100Z,9.70
2018-03-20T20:10:40.157Z,7.78
2018-03-20T20:13:08.187Z,9.68
2018-03-20T20:15:37.003Z,7.87
2018-03-20T20:18:05.070Z,9.90
2018-03-20T20:20:33.187Z,8.15
2018-03-20T20:23:01.294Z,7.65
2018-03-20T20:25:29.329Z,8.63
2018-03-20T20:27:57.392Z,12.13
2018-03-20T20:30:25.449Z,8.35
2018-03-20T20:32:53.519Z,12.23
2018-03-20T20:35:22.355Z,7.78
2018-03-20T20:37:50.444Z,10.05
2018-03-20T20:40:18.546Z,9.48
2018-03-20T20:42:46.576Z,10.77
2018-03-20T20:45:14.606Z,10.30
2018-03-20T20:47:42.694Z,8.52
2018-03-20T20:50:10.755Z,10.13
2018-03-20T20:52:38.894Z,8.10
2018-03-20T20:55:07.706Z,7.55
2018-03-20T20:57:35.854Z,7.32
2018-03-20T21:00:03.987Z,11.02
2018-03-20T21:02:32.044Z,9.75
2018-03-20T21:05:00.103Z,6.03
2018-03-20T21:07:28.166Z,9.90
2018-03-20T21:09:56.223Z,10.07
2018-03-20T21:12:24.276Z,9.35
2018-03-20T21:14:53.854Z,10.35
2018-03-20T21:17:21.913Z,14.00
2018-03-20T21:19:50.015Z,10.07
2018-03-20T21:22:18.103Z,12.32
2018-03-20T21:24:46.175Z,11.35
2018-03-20T21:27:14.244Z,9.68
2018-03-20T21:29:42.283Z,12.70
2018-03-20T21:32:10.320Z,13.82
2018-03-20T21:34:38.401Z,10.52
2018-03-20T21:37:06.449Z,22.15
2018-03-20T21:39:34.496Z,14.02
2018-03-20T21:42:02.545Z,14.65
2018-03-20T21:44:30.598Z,11.88
2018-03-20T21:46:58.635Z,10.18
2018-03-20T21:49:26.663Z,14.90
2018-03-20T21:51:54.720Z,14.40
2018-03-20T21:54:22.771Z,13.48
2018-03-20T21:56:50.839Z,11.75
2018-03-20T21:59:19.692Z,17.77
2018-03-20T22:01:47.730Z,12.85
2018-03-20T22:04:15.809Z,12.50
2018-03-20T22:06:43.846Z,16.23
2018-03-20T22:09:12.656Z,15.27
2018-03-20T22:11:40.727Z,13.90
2018-03-20T22:14:08.772Z,16.45
2018-03-20T22:16:36.821Z,15.27
2018-03-20T22:19:04.892Z,15.57
2018-03-20T22:21:32.993Z,18.12
2018-03-20T22:24:00.989Z,19.55
2018-03-20T22:26:29.068Z,21.27
2018-03-20T22:28:57.114Z,20.33
2018-03-20T22:31:25.910Z,20.25
2018-03-20T22:33:53.980Z,18.90
2018-03-20T22:36:22.016Z,19.25
2018-03-20T22:38:50.091Z,23.67
2018-03-20T22:41:18.152Z,22.50
2018-03-20T22:43:46.196Z,22.40
2018-03-20T22:46:14.252Z,20.80
2018-03-20T22:48:42.282Z,24.12
2018-03-20T22:51:10.352Z,28.12
2018-03-20T22:53:39.173Z,22.30
2018-03-20T22:56:07.215Z,24.17
2018-03-20T22:58:35.248Z,27.62
2018-03-20T23:01:03.352Z,25.67
2018-03-20T23:03:31.474Z,24.05
2018-03-20T23:05:59.526Z,25.83
2018-03-20T23:08:27.588Z,26.80
2018-03-20T23:10:55.626Z,27.37
2018-03-20T23:13:23.698Z,28.15
2018-03-20T23:15:51.784Z,30.83
2018-03-20T23:18:19.826Z,28.90
2018-03-20T23:20:47.880Z,29.37
2018-03-20T23:23:16.734Z,28.87
2018-03-20T23:25:44.784Z,30.80
2018-03-20T23:28:12.866Z,31.10
2018-03-20T23:30:40.949Z,31.58
2018-03-20T23:33:08.986Z,32.25
2018-03-20T23:35:37.032Z,33.80
2018-03-20T23:38:05.082Z,32.85
2018-03-20T23:40:33.150Z,32.47
2018-03-20T23:43:01.195Z,32.30
2018-03-20T23:45:29.248Z,35.05
2018-03-20T23:47:57.290Z,34.63
2018-03-20T23:50:25.323Z,35.05
2018-03-20T23:52:53.397Z,37.35
2018-03-20T23:55:21.448Z,39.40
2018-03-20T23:57:49.470Z,37.45
